sensor_id;sensor_type;location;lat;lon;timestamp;P1;durP1;ratioP1;P2;durP2;ratioP2
13855;SDS011;6998;53.608;9.958;2023-01-19T00:01:28;18.97;;;13.97;;
13855;SDS011;6998;53.608;9.958;2023-01-19T00:03:55;20.10;;;14.33;;
13855;SDS011;6998;53.608;9.958;2023-01-19T00:06:26;22.27;;;14.53;;
13855;SDS011;6998;53.608;9.958;2023-01-19T00:09:12;18.63;;;14.37;;
13855;SDS011;6998;53.608;9.958;2023-01-19T00:11:39;19.77;;;15.20;;
13855;SDS011;6998;53.608;9.958;2023-01-19T00:17:29;18.03;;;13.60;;
13855;SDS011;6998;53.608;9.958;2023-01-19T00:20:23;19.03;;;13.93;;
13855;SDS011;6998;53.608;9.958;2023-01-19T00:22:51;18.80;;;13.90;;
13855;SDS011;6998;53.608;9.958;2023-01-19T00:25:21;16.47;;;13.70;;
13855;SDS011;6998;53.608;9.958;2023-01-19T00:27:52;18.27;;;14.43;;
13855;SDS011;6998;53.608;9.958;2023-01-19T00:30:40;19.00;;;14.33;;
13855;SDS011;6998;53.608;9.958;2023-01-19T00:33:20;20.57;;;14.27;;
13855;SDS011;6998;53.608;9.958;2023-01-19T00:41:44;18.87;;;14.67;;
13855;SDS011;6998;53.608;9.958;2023-01-19T00:44:40;20.70;;;13.93;;
13855;SDS011;6998;53.608;9.958;2023-01-19T00:47:27;18.40;;;13.97;;
13855;SDS011;6998;53.608;9.958;2023-01-19T00:49:54;21.87;;;14.73;;
13855;SDS011;6998;53.608;9.958;2023-01-19T00:52:25;20.00;;;13.93;;
13855;SDS011;6998;53.608;9.958;2023-01-19T00:55:07;20.07;;;14.30;;
13855;SDS011;6998;53.608;9.958;2023-01-19T00:57:48;21.17;;;13.83;;
13855;SDS011;6998;53.608;9.958;2023-01-19T01:00:16;19.10;;;14.60;;
13855;SDS011;6998;53.608;9.958;2023-01-19T01:05:53;18.83;;;14.43;;
13855;SDS011;6998;53.608;9.958;2023-01-19T01:08:32;18.43;;;14.20;;
13855;SDS011;6998;53.608;9.958;2023-01-19T01:11:00;18.07;;;14.03;;
13855;SDS011;6998;53.608;9.958;2023-01-19T01:13:33;19.97;;;14.53;;
13855;SDS011;6998;53.608;9.958;2023-01-19T01:16:09;15.80;;;13.77;;
13855;SDS011;6998;53.608;9.958;2023-01-19T01:24:32;20.00;;;14.67;;
13855;SDS011;6998;53.608;9.958;2023-01-19T01:27:10;18.40;;;14.43;;
13855;SDS011;6998;53.608;9.958;2023-01-19T01:29:38;17.60;;;14.37;;
13855;SDS011;6998;53.608;9.958;2023-01-19T01:32:43;17.70;;;14.07;;
13855;SDS011;6998;53.608;9.958;2023-01-19T01:35:12;17.80;;;14.03;;
13855;SDS011;6998;53.608;9.958;2023-01-19T01:37:41;19.30;;;14.83;;
13855;SDS011;6998;53.608;9.958;2023-01-19T01:40:10;20.10;;;14.60;;
13855;SDS011;6998;53.608;9.958;2023-01-19T01:43:18;18.47;;;14.00;;
13855;SDS011;6998;53.608;9.958;2023-01-19T01:45:45;17.70;;;14.07;;
13855;SDS011;6998;53.608;9.958;2023-01-19T01:48:13;20.10;;;14.43;;
13855;SDS011;6998;53.608;9.958;2023-01-19T01:51:03;17.33;;;13.70;;
13855;SDS011;6998;53.608;9.958;2023-01-19T01:53:53;18.63;;;14.37;;
13855;SDS011;6998;53.608;9.958;2023-01-19T01:56:30;21.97;;;14.00;;
13855;SDS011;6998;53.608;9.958;2023-01-19T01:59:26;18.90;;;14.50;;
13855;SDS011;6998;53.608;9.958;2023-01-19T02:02:06;18.03;;;13.70;;
13855;SDS011;6998;53.608;9.958;2023-01-19T02:04:56;20.80;;;14.40;;
13855;SDS011;6998;53.608;9.958;2023-01-19T02:07:32;16.07;;;13.33;;
13855;SDS011;6998;53.608;9.958;2023-01-19T02:13:27;18.20;;;13.17;;
13855;SDS011;6998;53.608;9.958;2023-01-19T02:15:58;17.60;;;13.57;;
13855;SDS011;6998;53.608;9.958;2023-01-19T02:18:28;16.57;;;12.97;;
13855;SDS011;6998;53.608;9.958;2023-01-19T02:20:59;19.07;;;13.67;;
13855;SDS011;6998;53.608;9.958;2023-01-19T02:24:09;17.20;;;13.50;;
13855;SDS011;6998;53.608;9.958;2023-01-19T02:26:37;19.00;;;13.40;;
13855;SDS011;6998;53.608;9.958;2023-01-19T02:29:07;18.43;;;13.60;;
13855;SDS011;6998;53.608;9.958;2023-01-19T02:31:41;18.30;;;13.47;;
13855;SDS011;6998;53.608;9.958;2023-01-19T02:34:41;16.43;;;12.90;;
13855;SDS011;6998;53.608;9.958;2023-01-19T02:37:25;16.40;;;13.13;;
13855;SDS011;6998;53.608;9.958;2023-01-19T02:40:01;18.50;;;13.53;;
13855;SDS011;6998;53.608;9.958;2023-01-19T02:42:55;19.23;;;14.13;;
13855;SDS011;6998;53.608;9.958;2023-01-19T02:45:25;15.60;;;13.07;;
13855;SDS011;6998;53.608;9.958;2023-01-19T02:47:52;18.23;;;13.37;;
13855;SDS011;6998;53.608;9.958;2023-01-19T02:50:40;18.33;;;13.10;;
13855;SDS011;6998;53.608;9.958;2023-01-19T02:53:27;17.57;;;13.83;;
13855;SDS011;6998;53.608;9.958;2023-01-19T02:56:37;17.27;;;14.40;;
13855;SDS011;6998;53.608;9.958;2023-01-19T02:59:14;19.47;;;13.20;;
13855;SDS011;6998;53.608;9.958;2023-01-19T03:01:58;19.47;;;14.00;;
13855;SDS011;6998;53.608;9.958;2023-01-19T03:04:45;18.00;;;13.63;;
13855;SDS011;6998;53.608;9.958;2023-01-19T03:07:46;20.37;;;14.03;;
13855;SDS011;6998;53.608;9.958;2023-01-19T03:10:46;19.70;;;14.03;;
13855;SDS011;6998;53.608;9.958;2023-01-19T03:13:31;18.73;;;14.37;;
13855;SDS011;6998;53.608;9.958;2023-01-19T03:16:15;17.57;;;13.83;;
13855;SDS011;6998;53.608;9.958;2023-01-19T03:18:48;19.00;;;13.80;;
13855;SDS011;6998;53.608;9.958;2023-01-19T03:21:25;19.73;;;14.47;;
13855;SDS011;6998;53.608;9.958;2023-01-19T03:24:00;17.67;;;14.57;;
13855;SDS011;6998;53.608;9.958;2023-01-19T03:26:31;17.37;;;14.20;;
13855;SDS011;6998;53.608;9.958;2023-01-19T03:29:34;19.27;;;15.00;;
13855;SDS011;6998;53.608;9.958;2023-01-19T03:32:05;17.13;;;14.10;;
13855;SDS011;6998;53.608;9.958;2023-01-19T03:34:55;17.73;;;14.37;;
13855;SDS011;6998;53.608;9.958;2023-01-19T03:37:25;18.17;;;14.57;;
13855;SDS011;6998;53.608;9.958;2023-01-19T03:39:56;20.53;;;14.90;;
13855;SDS011;6998;53.608;9.958;2023-01-19T03:42:24;16.57;;;14.70;;
13855;SDS011;6998;53.608;9.958;2023-01-19T03:45:04;18.77;;;14.20;;
13855;SDS011;6998;53.608;9.958;2023-01-19T03:47:40;20.30;;;14.43;;
13855;SDS011;6998;53.608;9.958;2023-01-19T03:50:10;18.83;;;14.50;;
13855;SDS011;6998;53.608;9.958;2023-01-19T03:55:43;19.77;;;14.27;;
13855;SDS011;6998;53.608;9.958;2023-01-19T03:58:14;19.77;;;14.70;;
13855;SDS011;6998;53.608;9.958;2023-01-19T04:00:44;20.83;;;14.90;;
13855;SDS011;6998;53.608;9.958;2023-01-19T04:03:13;17.20;;;15.23;;
13855;SDS011;6998;53.608;9.958;2023-01-19T04:09:01;24.27;;;14.97;;
13855;SDS011;6998;53.608;9.958;2023-01-19T04:11:32;19.30;;;15.67;;
13855;SDS011;6998;53.608;9.958;2023-01-19T04:14:03;18.97;;;15.13;;
13855;SDS011;6998;53.608;9.958;2023-01-19T04:16:44;20.20;;;15.97;;
13855;SDS011;6998;53.608;9.958;2023-01-19T04:19:21;20.90;;;15.30;;
13855;SDS011;6998;53.608;9.958;2023-01-19T04:21:54;22.83;;;16.17;;
13855;SDS011;6998;53.608;9.958;2023-01-19T04:24:28;21.37;;;15.63;;
13855;SDS011;6998;53.608;9.958;2023-01-19T04:27:04;16.93;;;15.17;;
13855;SDS011;6998;53.608;9.958;2023-01-19T04:29:31;19.77;;;15.53;;
13855;SDS011;6998;53.608;9.958;2023-01-19T04:35:00;22.53;;;17.43;;
13855;SDS011;6998;53.608;9.958;2023-01-19T04:40:17;21.63;;;16.30;;
13855;SDS011;6998;53.608;9.958;2023-01-19T04:42:44;19.27;;;17.20;;
13855;SDS011;6998;53.608;9.958;2023-01-19T04:45:12;20.10;;;17.40;;
13855;SDS011;6998;53.608;9.958;2023-01-19T04:47:58;20.93;;;16.57;;
13855;SDS011;6998;53.608;9.958;2023-01-19T04:50:26;20.33;;;16.83;;
13855;SDS011;6998;53.608;9.958;2023-01-19T04:52:53;19.23;;;16.03;;
13855;SDS011;6998;53.608;9.958;2023-01-19T04:55:20;21.30;;;17.23;;
13855;SDS011;6998;53.608;9.958;2023-01-19T04:57:48;20.27;;;16.97;;
13855;SDS011;6998;53.608;9.958;2023-01-19T05:00:18;21.33;;;17.33;;
13855;SDS011;6998;53.608;9.958;2023-01-19T05:02:47;24.70;;;17.67;;
13855;SDS011;6998;53.608;9.958;2023-01-19T05:05:21;20.40;;;16.97;;
13855;SDS011;6998;53.608;9.958;2023-01-19T05:07:49;28.60;;;17.40;;
13855;SDS011;6998;53.608;9.958;2023-01-19T05:10:24;21.63;;;17.40;;
13855;SDS011;6998;53.608;9.958;2023-01-19T05:12:51;20.83;;;16.33;;
13855;SDS011;6998;53.608;9.958;2023-01-19T05:15:19;20.13;;;16.87;;
13855;SDS011;6998;53.608;9.958;2023-01-19T05:17:46;21.93;;;16.63;;
13855;SDS011;6998;53.608;9.958;2023-01-19T05:20:13;19.80;;;16.70;;
13855;SDS011;6998;53.608;9.958;2023-01-19T05:22:45;19.37;;;16.13;;
13855;SDS011;6998;53.608;9.958;2023-01-19T05:25:16;19.80;;;16.43;;
13855;SDS011;6998;53.608;9.958;2023-01-19T05:27:43;19.73;;;16.47;;
13855;SDS011;6998;53.608;9.958;2023-01-19T05:30:18;18.83;;;16.23;;
13855;SDS011;6998;53.608;9.958;2023-01-19T05:32:49;19.87;;;16.27;;
13855;SDS011;6998;53.608;9.958;2023-01-19T05:35:16;20.20;;;16.23;;
13855;SDS011;6998;53.608;9.958;2023-01-19T05:37:44;21.07;;;17.13;;
13855;SDS011;6998;53.608;9.958;2023-01-19T05:40:14;20.37;;;17.53;;
13855;SDS011;6998;53.608;9.958;2023-01-19T05:42:41;22.20;;;16.90;;
13855;SDS011;6998;53.608;9.958;2023-01-19T05:45:09;22.00;;;17.77;;
13855;SDS011;6998;53.608;9.958;2023-01-19T05:47:37;23.50;;;16.77;;
13855;SDS011;6998;53.608;9.958;2023-01-19T05:50:04;21.43;;;17.93;;
13855;SDS011;6998;53.608;9.958;2023-01-19T05:52:32;21.33;;;18.20;;
13855;SDS011;6998;53.608;9.958;2023-01-19T05:55:02;20.47;;;17.67;;
13855;SDS011;6998;53.608;9.958;2023-01-19T05:57:29;23.70;;;18.60;;
13855;SDS011;6998;53.608;9.958;2023-01-19T05:59:57;26.17;;;19.07;;
13855;SDS011;6998;53.608;9.958;2023-01-19T06:02:24;23.37;;;18.50;;
13855;SDS011;6998;53.608;9.958;2023-01-19T06:04:52;22.03;;;17.93;;
13855;SDS011;6998;53.608;9.958;2023-01-19T06:07:20;21.13;;;17.47;;
13855;SDS011;6998;53.608;9.958;2023-01-19T06:09:46;22.27;;;18.73;;
13855;SDS011;6998;53.608;9.958;2023-01-19T06:12:15;23.17;;;18.20;;
13855;SDS011;6998;53.608;9.958;2023-01-19T06:14:41;24.17;;;19.53;;
13855;SDS011;6998;53.608;9.958;2023-01-19T06:17:10;21.27;;;18.43;;
13855;SDS011;6998;53.608;9.958;2023-01-19T06:19:37;23.93;;;19.70;;
13855;SDS011;6998;53.608;9.958;2023-01-19T06:22:08;25.90;;;20.07;;
13855;SDS011;6998;53.608;9.958;2023-01-19T06:24:35;22.57;;;19.33;;
13855;SDS011;6998;53.608;9.958;2023-01-19T06:27:03;23.13;;;19.47;;
13855;SDS011;6998;53.608;9.958;2023-01-19T06:29:32;23.73;;;19.50;;
13855;SDS011;6998;53.608;9.958;2023-01-19T06:32:05;23.47;;;19.20;;
13855;SDS011;6998;53.608;9.958;2023-01-19T06:34:35;24.27;;;19.63;;
13855;SDS011;6998;53.608;9.958;2023-01-19T06:37:21;23.40;;;19.67;;
13855;SDS011;6998;53.608;9.958;2023-01-19T06:39:54;21.70;;;19.00;;
13855;SDS011;6998;53.608;9.958;2023-01-19T06:42:21;21.97;;;18.87;;
13855;SDS011;6998;53.608;9.958;2023-01-19T06:45:01;23.67;;;19.93;;
13855;SDS011;6998;53.608;9.958;2023-01-19T06:47:29;20.97;;;18.23;;
13855;SDS011;6998;53.608;9.958;2023-01-19T06:50:00;23.87;;;18.50;;
13855;SDS011;6998;53.608;9.958;2023-01-19T06:52:28;21.30;;;18.70;;
13855;SDS011;6998;53.608;9.958;2023-01-19T06:55:29;22.50;;;18.53;;
13855;SDS011;6998;53.608;9.958;2023-01-19T06:58:34;20.50;;;18.13;;
13855;SDS011;6998;53.608;9.958;2023-01-19T07:01:09;19.83;;;17.77;;
13855;SDS011;6998;53.608;9.958;2023-01-19T07:03:42;22.23;;;18.30;;
13855;SDS011;6998;53.608;9.958;2023-01-19T07:06:15;20.93;;;17.57;;
13855;SDS011;6998;53.608;9.958;2023-01-19T07:08:42;20.73;;;18.33;;
13855;SDS011;6998;53.608;9.958;2023-01-19T07:11:11;25.77;;;20.43;;
13855;SDS011;6998;53.608;9.958;2023-01-19T07:13:42;22.53;;;19.60;;
13855;SDS011;6998;53.608;9.958;2023-01-19T23:02:38;9.90;;;3.50;;
13855;SDS011;6998;53.608;9.958;2023-01-19T23:05:28;9.97;;;3.83;;
13855;SDS011;6998;53.608;9.958;2023-01-19T23:08:05;16.23;;;4.07;;
13855;SDS011;6998;53.608;9.958;2023-01-19T23:16:23;9.93;;;3.80;;
